createdAt,value
2017-11-20T00:00:10.797Z,4.40
2017-11-20T00:02:38.856Z,4.40
2017-11-20T00:05:07.557Z,4.30
2017-11-20T00:07:35.453Z,4.30
2017-11-20T00:10:03.400Z,4.30
2017-11-20T00:12:31.315Z,4.30
2017-11-20T00:14:59.305Z,4.30
2017-11-20T00:17:27.230Z,4.30
2017-11-20T00:19:55.216Z,4.30
2017-11-20T00:22:23.130Z,4.20
2017-11-20T00:24:51.851Z,4.20
2017-11-20T00:27:21.752Z,4.30
2017-11-20T00:29:49.736Z,4.30
2017-11-20T00:32:17.874Z,4.30
2017-11-20T00:34:46.599Z,4.20
2017-11-20T00:37:14.529Z,4.20
2017-11-20T00:39:42.487Z,4.20
2017-11-20T00:42:10.503Z,4.20
2017-11-20T00:44:38.601Z,4.20
2017-11-20T00:47:06.487Z,4.20
2017-11-20T00:49:34.433Z,4.20
2017-11-20T00:52:02.362Z,4.20
2017-11-20T00:54:30.359Z,4.20
2017-11-20T00:56:58.289Z,4.10
2017-11-20T00:59:26.986Z,4.10
2017-11-20T01:01:55.113Z,4.10
2017-11-20T01:04:23.011Z,4.10
2017-11-20T01:06:51.633Z,4.10
2017-11-20T01:09:19.556Z,4.10
2017-11-20T01:11:47.536Z,4.10
2017-11-20T01:14:15.485Z,4.10
2017-11-20T01:16:43.428Z,4.20
2017-11-20T01:19:11.337Z,4.20
2017-11-20T01:21:39.701Z,4.20
2017-11-20T01:24:07.588Z,4.10
2017-11-20T01:26:36.177Z,4.10
2017-11-20T01:29:04.106Z,4.20
2017-11-20T01:31:33.521Z,4.20
2017-11-20T01:34:01.567Z,4.20
2017-11-20T01:36:29.505Z,4.10
2017-11-20T01:38:59.578Z,4.20
2017-11-20T01:41:27.662Z,4.20
2017-11-20T01:43:55.614Z,4.20
2017-11-20T01:46:23.636Z,4.30
2017-11-20T01:48:52.310Z,4.20
2017-11-20T01:51:20.263Z,4.20
2017-11-20T01:53:48.257Z,4.20
2017-11-20T01:56:16.975Z,4.20
2017-11-20T01:58:44.901Z,4.20
2017-11-20T02:01:12.921Z,4.20
2017-11-20T02:03:40.885Z,4.20
2017-11-20T02:06:08.903Z,4.20
2017-11-20T02:08:36.826Z,4.20
2017-11-20T02:11:04.829Z,4.20
2017-11-20T02:13:32.783Z,4.30
2017-11-20T02:16:00.767Z,4.20
2017-11-20T02:18:28.669Z,4.20
2017-11-20T02:20:56.682Z,4.20
2017-11-20T02:23:25.774Z,4.20
2017-11-20T02:25:53.793Z,4.20
2017-11-20T02:28:21.693Z,4.20
2017-11-20T02:30:49.726Z,4.20
2017-11-20T02:33:17.707Z,4.20
2017-11-20T02:35:45.717Z,4.20
2017-11-20T02:38:13.698Z,4.10
2017-11-20T02:40:41.719Z,4.20
2017-11-20T02:43:09.690Z,4.20
2017-11-20T02:45:37.720Z,4.10
2017-11-20T02:48:05.675Z,4.10
2017-11-20T02:50:33.680Z,4.10
2017-11-20T02:53:01.750Z,4.10
2017-11-20T02:55:29.796Z,4.10
2017-11-20T02:57:57.746Z,4.00
2017-11-20T03:00:25.757Z,4.00
2017-11-20T03:02:53.679Z,4.10
2017-11-20T03:05:22.389Z,3.90
2017-11-20T03:07:50.327Z,3.90
2017-11-20T03:10:18.295Z,3.90
2017-11-20T03:12:46.187Z,3.90
2017-11-20T03:15:14.145Z,3.90
2017-11-20T03:17:42.896Z,3.90
2017-11-20T03:20:10.868Z,3.80
2017-11-20T03:22:38.878Z,3.80
2017-11-20T03:25:07.636Z,3.80
2017-11-20T03:27:35.607Z,3.80
2017-11-20T03:30:03.625Z,3.90
2017-11-20T03:32:31.544Z,3.90
2017-11-20T03:34:59.446Z,3.90
2017-11-20T03:37:27.404Z,3.90
2017-11-20T03:39:55.308Z,3.90
2017-11-20T03:42:23.329Z,3.90
2017-11-20T03:44:51.321Z,4.00
2017-11-20T03:47:19.284Z,4.00
2017-11-20T03:49:47.199Z,4.00
2017-11-20T03:52:18.566Z,4.00
2017-11-20T03:54:46.518Z,4.00
2017-11-20T03:57:14.460Z,4.00
2017-11-20T03:59:42.398Z,3.90
2017-11-20T04:02:10.343Z,3.90
2017-11-20T04:04:38.276Z,3.80
2017-11-20T04:07:06.205Z,3.80
2017-11-20T04:09:34.166Z,3.70
2017-11-20T04:12:02.126Z,3.70
2017-11-20T04:14:30.022Z,3.60
2017-11-20T04:16:57.968Z,3.60
2017-11-20T04:19:25.919Z,3.50
2017-11-20T04:21:59.780Z,3.50
2017-11-20T04:24:27.676Z,3.30
2017-11-20T04:26:55.623Z,3.30
2017-11-20T04:29:23.564Z,3.30
2017-11-20T04:31:51.549Z,3.30
2017-11-20T04:37:01.949Z,3.30
2017-11-20T04:39:29.861Z,3.30
2017-11-20T04:42:10.926Z,3.40
2017-11-20T04:44:38.847Z,3.40
2017-11-20T04:47:06.837Z,3.40
2017-11-20T04:49:34.762Z,3.40
2017-11-20T04:52:02.805Z,3.40
2017-11-20T04:54:30.700Z,3.40
2017-11-20T04:56:58.658Z,3.40
2017-11-20T04:59:26.612Z,3.30
2017-11-20T05:01:54.553Z,3.30
2017-11-20T05:04:22.455Z,3.40
2017-11-20T05:06:50.407Z,3.40
2017-11-20T05:09:18.314Z,3.40
2017-11-20T05:11:46.260Z,3.40
2017-11-20T05:14:14.164Z,3.40
2017-11-20T05:16:46.463Z,3.40
2017-11-20T05:19:18.167Z,3.40
2017-11-20T05:21:52.962Z,3.40
2017-11-20T05:24:21.201Z,3.40
2017-11-20T05:26:49.131Z,3.40
2017-11-20T05:29:17.026Z,3.40
2017-11-20T05:31:44.964Z,3.30
2017-11-20T05:34:12.846Z,3.40
2017-11-20T05:36:40.779Z,3.40
2017-11-20T05:39:08.666Z,3.40
2017-11-20T05:41:36.605Z,3.40
2017-11-20T05:44:05.273Z,3.30
2017-11-20T05:46:33.503Z,3.30
2017-11-20T05:49:01.401Z,3.30
2017-11-20T05:51:29.347Z,3.20
2017-11-20T05:53:57.378Z,3.20
2017-11-20T05:56:25.323Z,3.10
2017-11-20T05:58:53.207Z,3.10
2017-11-20T06:01:21.148Z,3.10
2017-11-20T06:03:55.174Z,3.10
2017-11-20T06:06:23.106Z,3.00
2017-11-20T06:08:55.287Z,3.00
2017-11-20T06:11:23.408Z,3.00
2017-11-20T06:13:52.077Z,3.10
2017-11-20T06:16:20.022Z,3.10
2017-11-20T06:18:47.901Z,3.10
2017-11-20T06:21:15.842Z,3.10
2017-11-20T06:23:43.772Z,3.10
2017-11-20T06:26:11.718Z,3.10
2017-11-20T06:28:39.633Z,3.10
2017-11-20T06:31:08.363Z,3.20
2017-11-20T06:33:36.317Z,3.10
2017-11-20T06:36:04.265Z,3.20
2017-11-20T06:38:32.189Z,3.20
2017-11-20T06:41:00.140Z,3.30
2017-11-20T06:43:28.058Z,3.30
2017-11-20T06:45:56.046Z,3.20
2017-11-20T06:48:23.936Z,3.30
2017-11-20T06:50:51.892Z,3.30
2017-11-20T06:53:20.962Z,3.20
2017-11-20T06:55:49.680Z,3.30
2017-11-20T06:58:17.589Z,3.30
2017-11-20T07:00:45.566Z,3.30
2017-11-20T07:03:13.462Z,3.30
2017-11-20T07:05:41.382Z,3.30
2017-11-20T07:08:09.327Z,3.30
2017-11-20T07:10:37.221Z,3.30
2017-11-20T07:13:05.189Z,3.40
2017-11-20T07:15:33.116Z,3.30
2017-11-20T07:18:01.072Z,3.30
2017-11-20T07:20:35.495Z,3.40
2017-11-20T07:23:03.482Z,3.30
2017-11-20T07:25:43.069Z,3.40
2017-11-20T07:28:11.030Z,3.40
2017-11-20T07:30:50.766Z,3.40
2017-11-20T07:33:18.791Z,3.40
2017-11-20T07:35:58.516Z,3.40
2017-11-20T07:38:38.007Z,3.40
2017-11-20T07:41:06.750Z,3.40
2017-11-20T07:43:34.711Z,3.40
2017-11-20T07:46:02.610Z,3.40
2017-11-20T07:48:30.579Z,3.50
2017-11-20T07:50:58.494Z,3.50
2017-11-20T07:53:26.455Z,3.50
2017-11-20T07:55:54.395Z,3.60
2017-11-20T07:58:22.374Z,3.70
2017-11-20T08:00:50.282Z,3.70
2017-11-20T08:03:18.348Z,3.70
2017-11-20T08:05:46.266Z,3.80
2017-11-20T08:08:14.210Z,3.80
2017-11-20T08:10:42.108Z,3.80
2017-11-20T08:13:10.070Z,3.80
2017-11-20T08:15:37.959Z,3.80
2017-11-20T08:18:05.906Z,3.80
2017-11-20T08:20:33.818Z,3.80
2017-11-20T08:23:01.826Z,3.80
2017-11-20T08:25:29.755Z,3.90
2017-11-20T08:27:57.715Z,3.80
2017-11-20T08:30:25.631Z,3.80
2017-11-20T08:32:53.683Z,3.80
2017-11-20T08:35:21.577Z,3.90
2017-11-20T08:37:49.544Z,3.90
2017-11-20T08:40:17.453Z,3.80
2017-11-20T08:42:45.411Z,3.80
2017-11-20T08:45:14.054Z,3.70
2017-11-20T08:47:42.003Z,3.70
2017-11-20T08:50:09.997Z,3.70
2017-11-20T08:52:37.934Z,3.70
2017-11-20T08:55:05.827Z,3.60
2017-11-20T08:57:33.842Z,3.60
2017-11-20T09:00:01.771Z,3.50
2017-11-20T09:02:30.941Z,3.60
2017-11-20T09:04:58.878Z,3.70
2017-11-20T09:07:27.662Z,3.70
2017-11-20T09:09:55.584Z,3.70
2017-11-20T09:12:23.605Z,3.80
2017-11-20T09:14:51.588Z,3.80
2017-11-20T09:17:19.574Z,3.80
2017-11-20T09:19:47.513Z,3.60
2017-11-20T09:22:15.508Z,3.70
2017-11-20T09:24:43.453Z,3.70
2017-11-20T09:27:11.418Z,3.70
2017-11-20T09:29:40.197Z,3.70
2017-11-20T09:32:08.389Z,3.80
2017-11-20T09:34:36.371Z,3.80
2017-11-20T09:37:05.122Z,4.00
2017-11-20T09:39:33.118Z,4.00
2017-11-20T09:42:01.155Z,4.20
2017-11-20T09:44:29.116Z,4.20
2017-11-20T09:46:57.100Z,4.20
2017-11-20T09:49:25.119Z,4.20
2017-11-20T09:51:53.157Z,4.20
2017-11-20T09:54:21.188Z,4.20
2017-11-20T09:56:49.220Z,4.30
2017-11-20T09:59:17.996Z,4.20
2017-11-20T10:01:45.922Z,4.20
2017-11-20T10:04:13.951Z,4.20
2017-11-20T10:06:41.910Z,4.20
2017-11-20T10:09:09.959Z,4.20
2017-11-20T10:11:37.941Z,4.10
2017-11-20T10:14:05.979Z,4.10
2017-11-20T10:16:34.009Z,4.00
2017-11-20T10:19:02.074Z,4.10
2017-11-20T10:21:30.936Z,4.20
2017-11-20T10:23:59.168Z,4.20
2017-11-20T10:26:27.155Z,4.20
2017-11-20T10:28:55.240Z,4.30
2017-11-20T10:31:23.266Z,4.20
2017-11-20T10:33:52.030Z,4.20
2017-11-20T10:36:20.045Z,4.20
2017-11-20T10:38:48.109Z,4.20
2017-11-20T10:41:16.908Z,4.00
2017-11-20T10:43:44.932Z,4.00
2017-11-20T10:46:13.006Z,4.10
2017-11-20T10:48:41.050Z,4.00
2017-11-20T10:51:09.132Z,4.10
2017-11-20T10:53:37.271Z,4.20
2017-11-20T10:56:05.332Z,4.20
2017-11-20T10:58:33.328Z,4.20
2017-11-20T11:01:01.411Z,4.20
2017-11-20T11:03:29.482Z,4.20
2017-11-20T11:05:57.688Z,4.10
2017-11-20T11:08:25.698Z,4.00
2017-11-20T11:10:53.733Z,4.00
2017-11-20T11:13:22.071Z,4.10
2017-11-20T11:15:50.139Z,4.10
2017-11-20T11:18:18.131Z,4.10
2017-11-20T11:20:46.435Z,4.10
2017-11-20T11:23:16.607Z,4.10
2017-11-20T11:25:44.723Z,4.10
2017-11-20T11:28:13.942Z,4.10
2017-11-20T11:30:44.955Z,4.10
2017-11-20T11:33:13.057Z,4.10
2017-11-20T11:35:41.224Z,4.10
2017-11-20T11:38:09.310Z,4.10
2017-11-20T11:40:38.056Z,4.10
2017-11-20T11:43:10.624Z,4.00
2017-11-20T11:45:39.602Z,4.00
2017-11-20T11:48:23.980Z,4.00
2017-11-20T11:50:52.068Z,3.90
2017-11-20T11:53:20.170Z,3.90
2017-11-20T11:55:48.293Z,3.90
2017-11-20T11:58:16.350Z,3.90
2017-11-20T12:00:44.479Z,4.10
2017-11-20T12:03:21.083Z,4.10
2017-11-20T12:05:56.982Z,4.10
2017-11-20T12:08:25.058Z,4.00
2017-11-20T12:10:54.863Z,4.10
2017-11-20T12:13:23.843Z,4.10
2017-11-20T12:15:56.985Z,4.00
2017-11-20T12:18:25.099Z,4.00
2017-11-20T12:20:53.733Z,4.10
2017-11-20T12:23:22.823Z,4.00
2017-11-20T12:25:52.061Z,4.00
2017-11-20T12:28:29.079Z,4.00
2017-11-20T12:30:57.400Z,4.00
2017-11-20T12:33:25.492Z,4.00
2017-11-20T12:35:53.553Z,4.00
2017-11-20T12:38:22.385Z,4.00
2017-11-20T12:40:50.389Z,4.00
2017-11-20T12:43:18.545Z,4.10
2017-11-20T12:45:46.578Z,4.00
2017-11-20T12:48:14.666Z,4.10
2017-11-20T12:50:42.701Z,4.10
2017-11-20T12:53:10.873Z,4.10
2017-11-20T12:55:39.009Z,4.10
2017-11-20T12:58:07.264Z,4.00
2017-11-20T13:00:35.327Z,4.00
2017-11-20T13:03:03.377Z,4.10
2017-11-20T13:05:31.462Z,4.00
2017-11-20T13:07:59.541Z,4.00
2017-11-20T13:10:27.580Z,4.20
2017-11-20T13:12:55.823Z,4.10
2017-11-20T13:15:23.866Z,4.00
2017-11-20T13:17:52.042Z,4.10
2017-11-20T13:20:20.140Z,4.10
2017-11-20T13:22:48.253Z,4.10
2017-11-20T13:25:16.297Z,4.10
2017-11-20T13:27:44.430Z,4.00
2017-11-20T13:30:12.533Z,4.10
2017-11-20T13:32:40.699Z,4.00
2017-11-20T13:35:08.849Z,4.10
2017-11-20T13:37:36.904Z,4.10
2017-11-20T13:40:15.376Z,4.20
2017-11-20T13:42:43.462Z,4.20
2017-11-20T13:45:13.820Z,4.10
2017-11-20T13:47:41.900Z,4.10
2017-11-20T13:50:10.059Z,4.20
2017-11-20T13:52:41.811Z,4.20
2017-11-20T13:55:09.906Z,4.10
2017-11-20T13:57:37.946Z,4.20
2017-11-20T14:00:17.455Z,4.10
2017-11-20T14:02:53.605Z,4.10
2017-11-20T14:05:26.795Z,4.10
2017-11-20T14:08:00.075Z,4.10
2017-11-20T14:10:28.484Z,4.00
2017-11-20T14:15:48.417Z,4.00
2017-11-20T14:18:19.354Z,3.90
2017-11-20T14:29:08.172Z,3.90
2017-11-20T14:31:36.314Z,3.80
2017-11-20T14:34:04.382Z,3.80
2017-11-20T14:36:32.445Z,3.80
2017-11-20T14:39:00.592Z,3.90
2017-11-20T14:41:30.420Z,3.80
2017-11-20T14:44:06.910Z,3.80
2017-11-20T14:46:36.035Z,3.80
2017-11-20T14:49:05.988Z,3.80
2017-11-20T15:07:52.316Z,3.80
2017-11-20T15:13:02.305Z,3.80
2017-11-20T15:15:33.109Z,3.80
2017-11-20T15:18:02.037Z,3.80
2017-11-20T15:20:32.150Z,3.80
2017-11-20T15:23:02.050Z,3.80
2017-11-20T15:25:33.062Z,3.90
2017-11-20T15:28:03.889Z,3.90
2017-11-20T15:30:34.161Z,3.90
2017-11-20T15:33:05.727Z,3.90
2017-11-20T15:35:35.854Z,3.90
2017-11-20T15:38:06.762Z,3.90
2017-11-20T15:40:35.687Z,3.90
2017-11-20T15:43:05.731Z,3.80
2017-11-20T15:45:36.590Z,3.90
2017-11-20T15:48:05.350Z,3.90
2017-11-20T15:50:33.797Z,3.90
2017-11-20T15:53:02.114Z,3.80
2017-11-20T15:55:31.170Z,3.90
2017-11-20T15:57:59.963Z,3.90
2017-11-20T16:00:28.632Z,3.90
2017-11-20T16:02:58.693Z,3.90
2017-11-20T16:05:34.665Z,4.00
2017-11-20T16:08:04.749Z,4.00
2017-11-20T16:10:39.664Z,4.00
2017-11-20T16:13:12.041Z,4.00
2017-11-20T16:15:42.786Z,3.90
2017-11-20T16:18:12.356Z,4.00
2017-11-20T16:21:01.763Z,4.00
2017-11-20T16:23:37.431Z,3.90
2017-11-20T16:32:18.913Z,3.90
2017-11-20T16:41:00.833Z,4.00
2017-11-20T16:43:50.803Z,4.00
2017-11-20T16:57:23.484Z,4.00
2017-11-20T17:02:55.227Z,4.00
2017-11-20T17:08:15.295Z,4.10
2017-11-20T17:10:44.208Z,4.10
2017-11-20T17:16:15.708Z,4.10
2017-11-20T17:18:56.610Z,4.10
2017-11-20T17:21:24.746Z,4.10
2017-11-20T17:23:52.757Z,4.10
2017-11-20T17:26:20.725Z,4.20
2017-11-20T17:28:49.099Z,4.20
2017-11-20T17:31:17.443Z,4.20
2017-11-20T17:33:45.852Z,4.20
2017-11-20T17:36:14.138Z,4.20
2017-11-20T17:38:42.929Z,4.30
2017-11-20T17:41:11.681Z,4.30
2017-11-20T17:43:41.051Z,4.30
2017-11-20T17:46:09.652Z,4.30
2017-11-20T17:48:37.964Z,4.30
2017-11-20T17:51:06.244Z,4.30
2017-11-20T17:53:34.508Z,4.30
2017-11-20T17:56:02.575Z,4.30
2017-11-20T17:58:30.706Z,4.40
2017-11-20T18:00:58.765Z,4.40
2017-11-20T18:03:27.050Z,4.40
2017-11-20T18:05:55.176Z,4.40
2017-11-20T18:08:24.067Z,4.40
2017-11-20T18:10:52.173Z,4.40
2017-11-20T18:13:20.426Z,4.50
2017-11-20T18:15:48.497Z,4.50
2017-11-20T18:18:16.605Z,4.50
2017-11-20T18:20:44.678Z,4.50
2017-11-20T18:23:12.891Z,4.50
2017-11-20T18:25:41.286Z,4.60
2017-11-20T18:28:10.100Z,4.60
2017-11-20T18:30:38.213Z,4.60
2017-11-20T18:33:06.630Z,4.60
2017-11-20T18:35:34.691Z,4.60
2017-11-20T18:38:02.742Z,4.60
2017-11-20T18:40:30.846Z,4.60
2017-11-20T18:42:58.902Z,4.70
2017-11-20T18:45:26.972Z,4.70
2017-11-20T18:47:55.294Z,4.80
2017-11-20T18:50:23.542Z,4.70
2017-11-20T18:52:51.545Z,4.80
2017-11-20T18:55:19.778Z,4.80
2017-11-20T18:57:47.945Z,4.80
2017-11-20T19:00:28.623Z,4.80
2017-11-20T19:03:08.246Z,4.80
2017-11-20T19:05:48.089Z,4.90
2017-11-20T19:08:27.948Z,4.90
2017-11-20T19:10:56.259Z,4.90
2017-11-20T19:13:28.384Z,5.00
2017-11-20T19:15:56.946Z,5.00
2017-11-20T19:18:25.856Z,5.00
2017-11-20T19:20:54.062Z,5.00
2017-11-20T19:23:22.184Z,5.00
2017-11-20T19:25:50.366Z,5.00
2017-11-20T19:28:19.312Z,5.10
2017-11-20T19:30:47.474Z,5.00
2017-11-20T19:33:15.833Z,5.10
2017-11-20T19:35:44.758Z,5.10
2017-11-20T19:38:12.822Z,5.10
2017-11-20T19:40:40.970Z,5.10
2017-11-20T19:43:09.023Z,5.10
2017-11-20T19:45:37.215Z,5.10
2017-11-20T19:48:05.248Z,5.10
2017-11-20T19:50:33.408Z,5.20
2017-11-20T19:53:01.463Z,5.20
2017-11-20T19:55:29.577Z,5.20
2017-11-20T19:57:57.592Z,5.20
2017-11-20T20:00:25.668Z,5.20
2017-11-20T20:02:56.805Z,5.20
2017-11-20T20:05:24.895Z,5.30
2017-11-20T20:07:56.126Z,5.30
2017-11-20T20:10:27.022Z,5.30
2017-11-20T20:12:56.692Z,5.30
2017-11-20T20:15:42.585Z,5.40
2017-11-20T20:18:15.712Z,5.40
2017-11-20T20:20:48.005Z,5.40
2017-11-20T20:23:17.205Z,5.50
2017-11-20T20:25:48.564Z,5.50
2017-11-20T20:28:18.214Z,5.60
2017-11-20T20:30:54.318Z,5.60
2017-11-20T20:33:28.808Z,5.70
2017-11-20T20:36:04.150Z,5.80
2017-11-20T20:38:36.862Z,5.80
2017-11-20T20:41:08.431Z,5.80
2017-11-20T20:43:42.249Z,5.80
2017-11-20T20:46:19.306Z,5.90
2017-11-20T20:48:51.742Z,5.90
2017-11-20T20:51:23.516Z,5.90
2017-11-20T20:53:56.174Z,5.90
2017-11-20T20:56:26.162Z,6.00
2017-11-20T20:59:01.014Z,6.00
2017-11-20T21:01:31.879Z,6.00
2017-11-20T21:04:00.230Z,6.10
2017-11-20T21:06:36.592Z,6.00
2017-11-20T21:09:12.384Z,6.10
2017-11-20T21:11:49.506Z,6.10
2017-11-20T21:14:19.085Z,6.10
2017-11-20T21:16:55.338Z,6.10
2017-11-20T21:19:24.564Z,6.10
2017-11-20T21:21:54.457Z,6.20
2017-11-20T21:24:29.331Z,6.20
2017-11-20T21:27:00.513Z,6.10
2017-11-20T21:29:33.235Z,6.20
2017-11-20T21:32:05.530Z,6.20
2017-11-20T21:34:36.490Z,6.20
2017-11-20T21:37:09.765Z,6.20
2017-11-20T21:39:44.684Z,6.20
2017-11-20T21:42:20.147Z,6.20
2017-11-20T21:44:55.625Z,6.30
2017-11-20T21:47:27.656Z,6.30
2017-11-20T21:50:01.358Z,6.30
2017-11-20T21:52:37.274Z,6.30
2017-11-20T21:55:11.455Z,6.30
2017-11-20T21:57:45.356Z,6.30
2017-11-20T22:00:18.597Z,6.30
2017-11-20T22:02:51.851Z,6.30
2017-11-20T22:05:20.552Z,6.30
2017-11-20T22:07:56.342Z,6.40
2017-11-20T22:10:28.933Z,6.40
2017-11-20T22:13:11.270Z,6.40
2017-11-20T22:15:39.518Z,6.50
2017-11-20T22:18:07.713Z,6.50
2017-11-20T22:20:40.204Z,6.50
2017-11-20T22:23:13.737Z,6.60
2017-11-20T22:25:45.028Z,6.60
2017-11-20T22:28:13.956Z,6.80
2017-11-20T22:30:44.174Z,6.80
2017-11-20T22:33:15.009Z,6.80
2017-11-20T22:35:43.109Z,6.90
2017-11-20T22:38:11.162Z,6.90
2017-11-20T22:40:39.926Z,6.90
2017-11-20T22:43:08.854Z,6.90
2017-11-20T22:45:36.842Z,6.90
2017-11-20T22:48:04.903Z,7.00
2017-11-20T22:50:32.900Z,7.00
2017-11-20T22:53:00.946Z,7.00
2017-11-20T22:55:33.623Z,7.00
2017-11-20T22:58:05.027Z,7.00
2017-11-20T23:00:36.712Z,7.00
2017-11-20T23:03:04.929Z,7.00
2017-11-20T23:05:32.930Z,7.00
2017-11-20T23:08:00.938Z,7.10
2017-11-20T23:10:29.731Z,7.10
2017-11-20T23:12:57.832Z,7.10
2017-11-20T23:15:27.501Z,7.10
2017-11-20T23:17:56.422Z,7.10
2017-11-20T23:20:24.403Z,7.10
2017-11-20T23:22:52.415Z,7.10
2017-11-20T23:25:23.273Z,7.10
2017-11-20T23:28:02.042Z,7.20
2017-11-20T23:30:30.184Z,7.10
2017-11-20T23:33:00.876Z,7.20
2017-11-20T23:35:31.546Z,7.10
2017-11-20T23:37:59.738Z,7.20
2017-11-20T23:40:27.657Z,7.20
2017-11-20T23:42:55.608Z,7.20
2017-11-20T23:45:24.024Z,7.30
2017-11-20T23:47:52.633Z,7.30
2017-11-20T23:50:20.689Z,7.30
2017-11-20T23:52:48.790Z,7.40
2017-11-20T23:55:16.865Z,7.40
2017-11-20T23:57:44.954Z,7.40
